sensor_id;sensor_type;location;lat;lon;timestamp;P1;durP1;ratioP1;P2;durP2;ratioP2
82806;SDS011;72563;44.816;20.484;2024-01-10T00:01:41;22.05;;;10.10;;
82806;SDS011;72563;44.816;20.484;2024-01-10T00:04:07;22.02;;;9.63;;
82806;SDS011;72563;44.816;20.484;2024-01-10T00:06:32;20.60;;;9.50;;
82806;SDS011;72563;44.816;20.484;2024-01-10T00:08:58;20.20;;;8.55;;
82806;SDS011;72563;44.816;20.484;2024-01-10T00:11:23;19.58;;;8.55;;
82806;SDS011;72563;44.816;20.484;2024-01-10T00:13:49;19.58;;;8.70;;
82806;SDS011;72563;44.816;20.484;2024-01-10T00:16:14;18.52;;;9.00;;
82806;SDS011;72563;44.816;20.484;2024-01-10T00:18:40;20.17;;;8.95;;
82806;SDS011;72563;44.816;20.484;2024-01-10T00:21:06;17.90;;;7.55;;
82806;SDS011;72563;44.816;20.484;2024-01-10T00:23:32;17.60;;;7.95;;
82806;SDS011;72563;44.816;20.484;2024-01-10T00:25:58;18.52;;;8.10;;
82806;SDS011;72563;44.816;20.484;2024-01-10T00:28:25;16.80;;;7.03;;
82806;SDS011;72563;44.816;20.484;2024-01-10T00:30:50;18.58;;;7.30;;
82806;SDS011;72563;44.816;20.484;2024-01-10T00:33:16;19.60;;;7.40;;
82806;SDS011;72563;44.816;20.484;2024-01-10T00:35:43;22.38;;;8.20;;
82806;SDS011;72563;44.816;20.484;2024-01-10T00:38:08;18.60;;;8.10;;
82806;SDS011;72563;44.816;20.484;2024-01-10T00:40:34;20.38;;;7.85;;
82806;SDS011;72563;44.816;20.484;2024-01-10T00:43:00;15.77;;;7.03;;
82806;SDS011;72563;44.816;20.484;2024-01-10T00:45:26;15.23;;;7.03;;
82806;SDS011;72563;44.816;20.484;2024-01-10T00:47:52;23.58;;;8.15;;
82806;SDS011;72563;44.816;20.484;2024-01-10T00:50:17;20.52;;;8.25;;
82806;SDS011;72563;44.816;20.484;2024-01-10T00:52:46;19.42;;;7.15;;
82806;SDS011;72563;44.816;20.484;2024-01-10T00:55:11;19.98;;;8.50;;
82806;SDS011;72563;44.816;20.484;2024-01-10T00:57:37;19.83;;;8.10;;
82806;SDS011;72563;44.816;20.484;2024-01-10T01:00:06;16.05;;;7.00;;
82806;SDS011;72563;44.816;20.484;2024-01-10T01:02:32;16.58;;;7.63;;
82806;SDS011;72563;44.816;20.484;2024-01-10T01:04:58;21.75;;;9.40;;
82806;SDS011;72563;44.816;20.484;2024-01-10T01:07:23;18.02;;;7.22;;
82806;SDS011;72563;44.816;20.484;2024-01-10T01:09:49;18.23;;;7.18;;
82806;SDS011;72563;44.816;20.484;2024-01-10T01:12:15;21.48;;;8.18;;
82806;SDS011;72563;44.816;20.484;2024-01-10T01:14:41;20.02;;;8.43;;
82806;SDS011;72563;44.816;20.484;2024-01-10T01:17:06;15.63;;;6.68;;
82806;SDS011;72563;44.816;20.484;2024-01-10T01:19:32;19.63;;;7.88;;
82806;SDS011;72563;44.816;20.484;2024-01-10T01:21:57;15.20;;;6.65;;
82806;SDS011;72563;44.816;20.484;2024-01-10T01:24:23;19.05;;;7.82;;
82806;SDS011;72563;44.816;20.484;2024-01-10T01:26:48;18.10;;;7.75;;
82806;SDS011;72563;44.816;20.484;2024-01-10T01:29:14;16.80;;;7.50;;
82806;SDS011;72563;44.816;20.484;2024-01-10T01:31:39;20.80;;;7.43;;
82806;SDS011;72563;44.816;20.484;2024-01-10T01:34:05;15.20;;;6.72;;
82806;SDS011;72563;44.816;20.484;2024-01-10T01:36:30;15.88;;;7.25;;
82806;SDS011;72563;44.816;20.484;2024-01-10T01:38:56;21.65;;;8.32;;
82806;SDS011;72563;44.816;20.484;2024-01-10T01:41:21;19.90;;;7.95;;
82806;SDS011;72563;44.816;20.484;2024-01-10T01:43:47;16.50;;;6.80;;
82806;SDS011;72563;44.816;20.484;2024-01-10T01:46:13;18.00;;;7.15;;
82806;SDS011;72563;44.816;20.484;2024-01-10T01:48:39;19.80;;;6.80;;
82806;SDS011;72563;44.816;20.484;2024-01-10T01:51:05;15.25;;;5.82;;
82806;SDS011;72563;44.816;20.484;2024-01-10T01:53:33;16.40;;;6.72;;
82806;SDS011;72563;44.816;20.484;2024-01-10T01:56:02;16.35;;;5.80;;
82806;SDS011;72563;44.816;20.484;2024-01-10T01:58:30;18.05;;;5.90;;
82806;SDS011;72563;44.816;20.484;2024-01-10T02:00:56;14.43;;;6.25;;
82806;SDS011;72563;44.816;20.484;2024-01-10T02:03:22;14.25;;;6.10;;
82806;SDS011;72563;44.816;20.484;2024-01-10T02:05:48;17.42;;;5.93;;
82806;SDS011;72563;44.816;20.484;2024-01-10T02:08:14;15.70;;;6.38;;
82806;SDS011;72563;44.816;20.484;2024-01-10T02:10:40;14.82;;;6.10;;
82806;SDS011;72563;44.816;20.484;2024-01-10T02:13:06;17.15;;;6.35;;
82806;SDS011;72563;44.816;20.484;2024-01-10T02:15:34;16.67;;;6.82;;
82806;SDS011;72563;44.816;20.484;2024-01-10T02:18:01;16.20;;;5.80;;
82806;SDS011;72563;44.816;20.484;2024-01-10T02:20:26;15.35;;;6.60;;
82806;SDS011;72563;44.816;20.484;2024-01-10T02:22:52;15.73;;;6.63;;
82806;SDS011;72563;44.816;20.484;2024-01-10T02:25:18;16.30;;;6.47;;
82806;SDS011;72563;44.816;20.484;2024-01-10T02:27:43;12.73;;;6.15;;
82806;SDS011;72563;44.816;20.484;2024-01-10T02:30:09;13.02;;;5.68;;
82806;SDS011;72563;44.816;20.484;2024-01-10T02:32:36;18.92;;;7.22;;
82806;SDS011;72563;44.816;20.484;2024-01-10T02:35:02;14.73;;;6.25;;
82806;SDS011;72563;44.816;20.484;2024-01-10T02:37:28;13.57;;;6.22;;
82806;SDS011;72563;44.816;20.484;2024-01-10T02:39:54;16.35;;;6.30;;
82806;SDS011;72563;44.816;20.484;2024-01-10T02:42:19;14.02;;;5.93;;
82806;SDS011;72563;44.816;20.484;2024-01-10T02:44:45;14.40;;;6.65;;
82806;SDS011;72563;44.816;20.484;2024-01-10T02:47:11;19.05;;;5.85;;
82806;SDS011;72563;44.816;20.484;2024-01-10T02:49:37;15.45;;;6.45;;
82806;SDS011;72563;44.816;20.484;2024-01-10T02:52:03;17.30;;;6.57;;
82806;SDS011;72563;44.816;20.484;2024-01-10T02:54:29;12.82;;;5.75;;
82806;SDS011;72563;44.816;20.484;2024-01-10T02:56:54;15.82;;;6.45;;
82806;SDS011;72563;44.816;20.484;2024-01-10T02:59:20;13.00;;;5.68;;
82806;SDS011;72563;44.816;20.484;2024-01-10T03:01:46;15.48;;;5.47;;
82806;SDS011;72563;44.816;20.484;2024-01-10T03:04:11;15.15;;;5.93;;
82806;SDS011;72563;44.816;20.484;2024-01-10T03:06:37;16.75;;;5.82;;
82806;SDS011;72563;44.816;20.484;2024-01-10T03:09:02;13.07;;;6.10;;
82806;SDS011;72563;44.816;20.484;2024-01-10T03:11:28;15.45;;;6.18;;
82806;SDS011;72563;44.816;20.484;2024-01-10T03:14:04;17.60;;;6.93;;
82806;SDS011;72563;44.816;20.484;2024-01-10T03:16:33;18.08;;;6.18;;
82806;SDS011;72563;44.816;20.484;2024-01-10T03:18:58;18.75;;;8.10;;
82806;SDS011;72563;44.816;20.484;2024-01-10T03:21:24;16.83;;;7.75;;
82806;SDS011;72563;44.816;20.484;2024-01-10T03:23:51;19.73;;;7.70;;
82806;SDS011;72563;44.816;20.484;2024-01-10T03:26:18;18.90;;;7.50;;
82806;SDS011;72563;44.816;20.484;2024-01-10T03:28:43;15.50;;;6.57;;
82806;SDS011;72563;44.816;20.484;2024-01-10T03:31:10;14.93;;;5.55;;
82806;SDS011;72563;44.816;20.484;2024-01-10T03:33:36;13.43;;;5.25;;
82806;SDS011;72563;44.816;20.484;2024-01-10T03:36:03;15.25;;;6.70;;
82806;SDS011;72563;44.816;20.484;2024-01-10T03:38:29;15.23;;;6.10;;
82806;SDS011;72563;44.816;20.484;2024-01-10T03:40:54;17.23;;;7.03;;
82806;SDS011;72563;44.816;20.484;2024-01-10T03:43:20;17.45;;;7.20;;
82806;SDS011;72563;44.816;20.484;2024-01-10T03:45:45;13.05;;;6.40;;
82806;SDS011;72563;44.816;20.484;2024-01-10T03:48:11;15.48;;;5.80;;
82806;SDS011;72563;44.816;20.484;2024-01-10T03:50:36;17.20;;;5.75;;
82806;SDS011;72563;44.816;20.484;2024-01-10T03:53:02;14.35;;;6.55;;
82806;SDS011;72563;44.816;20.484;2024-01-10T03:55:28;12.77;;;5.28;;
82806;SDS011;72563;44.816;20.484;2024-01-10T03:57:55;15.40;;;5.70;;
82806;SDS011;72563;44.816;20.484;2024-01-10T04:00:21;13.10;;;4.63;;
82806;SDS011;72563;44.816;20.484;2024-01-10T04:02:46;13.82;;;5.28;;
82806;SDS011;72563;44.816;20.484;2024-01-10T04:05:12;15.57;;;5.40;;
82806;SDS011;72563;44.816;20.484;2024-01-10T04:07:41;14.55;;;4.93;;
82806;SDS011;72563;44.816;20.484;2024-01-10T04:10:08;14.60;;;5.50;;
82806;SDS011;72563;44.816;20.484;2024-01-10T04:12:41;14.05;;;5.45;;
82806;SDS011;72563;44.816;20.484;2024-01-10T04:15:07;13.77;;;5.22;;
82806;SDS011;72563;44.816;20.484;2024-01-10T04:17:33;11.25;;;5.07;;
82806;SDS011;72563;44.816;20.484;2024-01-10T04:19:59;14.52;;;5.55;;
82806;SDS011;72563;44.816;20.484;2024-01-10T04:22:24;12.50;;;4.68;;
82806;SDS011;72563;44.816;20.484;2024-01-10T04:24:50;13.73;;;5.20;;
82806;SDS011;72563;44.816;20.484;2024-01-10T04:27:16;14.32;;;4.85;;
82806;SDS011;72563;44.816;20.484;2024-01-10T04:29:43;12.77;;;5.05;;
82806;SDS011;72563;44.816;20.484;2024-01-10T04:32:09;11.13;;;4.32;;
82806;SDS011;72563;44.816;20.484;2024-01-10T04:34:34;15.13;;;5.22;;
82806;SDS011;72563;44.816;20.484;2024-01-10T04:37:00;12.68;;;4.97;;
82806;SDS011;72563;44.816;20.484;2024-01-10T04:39:26;11.65;;;4.88;;
82806;SDS011;72563;44.816;20.484;2024-01-10T04:41:51;12.57;;;4.90;;
82806;SDS011;72563;44.816;20.484;2024-01-10T04:44:17;13.20;;;4.85;;
82806;SDS011;72563;44.816;20.484;2024-01-10T04:46:42;10.50;;;4.07;;
82806;SDS011;72563;44.816;20.484;2024-01-10T04:49:08;13.00;;;5.15;;
82806;SDS011;72563;44.816;20.484;2024-01-10T04:51:34;11.27;;;4.45;;
82806;SDS011;72563;44.816;20.484;2024-01-10T04:53:59;11.27;;;4.35;;
82806;SDS011;72563;44.816;20.484;2024-01-10T04:56:25;11.77;;;4.40;;
82806;SDS011;72563;44.816;20.484;2024-01-10T04:58:51;13.80;;;5.13;;
82806;SDS011;72563;44.816;20.484;2024-01-10T05:01:17;11.55;;;4.70;;
82806;SDS011;72563;44.816;20.484;2024-01-10T05:03:43;9.57;;;4.43;;
82806;SDS011;72563;44.816;20.484;2024-01-10T05:06:09;11.45;;;5.20;;
82806;SDS011;72563;44.816;20.484;2024-01-10T05:08:34;13.00;;;4.90;;
82806;SDS011;72563;44.816;20.484;2024-01-10T05:11:00;12.45;;;4.47;;
82806;SDS011;72563;44.816;20.484;2024-01-10T05:13:26;15.90;;;4.88;;
82806;SDS011;72563;44.816;20.484;2024-01-10T05:15:51;17.33;;;4.90;;
82806;SDS011;72563;44.816;20.484;2024-01-10T05:18:17;12.75;;;5.05;;
82806;SDS011;72563;44.816;20.484;2024-01-10T05:20:43;10.98;;;4.63;;
82806;SDS011;72563;44.816;20.484;2024-01-10T05:23:09;14.10;;;5.60;;
82806;SDS011;72563;44.816;20.484;2024-01-10T05:25:35;14.07;;;6.25;;
82806;SDS011;72563;44.816;20.484;2024-01-10T05:28:01;12.65;;;4.70;;
82806;SDS011;72563;44.816;20.484;2024-01-10T05:30:27;16.60;;;6.43;;
82806;SDS011;72563;44.816;20.484;2024-01-10T05:32:53;16.58;;;6.30;;
82806;SDS011;72563;44.816;20.484;2024-01-10T05:35:18;17.73;;;6.40;;
82806;SDS011;72563;44.816;20.484;2024-01-10T05:37:44;19.73;;;7.10;;
82806;SDS011;72563;44.816;20.484;2024-01-10T05:40:10;15.55;;;6.22;;
82806;SDS011;72563;44.816;20.484;2024-01-10T05:42:36;14.57;;;6.03;;
82806;SDS011;72563;44.816;20.484;2024-01-10T05:45:03;20.70;;;7.22;;
82806;SDS011;72563;44.816;20.484;2024-01-10T05:47:29;15.82;;;7.13;;
82806;SDS011;72563;44.816;20.484;2024-01-10T05:49:55;16.70;;;6.75;;
82806;SDS011;72563;44.816;20.484;2024-01-10T05:52:20;16.92;;;7.15;;
82806;SDS011;72563;44.816;20.484;2024-01-10T05:54:47;16.20;;;6.47;;
82806;SDS011;72563;44.816;20.484;2024-01-10T05:57:13;14.20;;;7.05;;
82806;SDS011;72563;44.816;20.484;2024-01-10T05:59:42;12.73;;;6.20;;
82806;SDS011;72563;44.816;20.484;2024-01-10T06:02:07;15.48;;;5.97;;
82806;SDS011;72563;44.816;20.484;2024-01-10T06:04:33;17.05;;;7.70;;
82806;SDS011;72563;44.816;20.484;2024-01-10T06:06:58;18.45;;;7.30;;
82806;SDS011;72563;44.816;20.484;2024-01-10T06:09:24;16.40;;;5.70;;
82806;SDS011;72563;44.816;20.484;2024-01-10T06:11:49;16.45;;;6.93;;
82806;SDS011;72563;44.816;20.484;2024-01-10T06:14:15;14.95;;;6.55;;
82806;SDS011;72563;44.816;20.484;2024-01-10T06:16:41;17.35;;;7.00;;
82806;SDS011;72563;44.816;20.484;2024-01-10T06:19:06;15.35;;;6.00;;
82806;SDS011;72563;44.816;20.484;2024-01-10T06:21:32;13.32;;;5.93;;
82806;SDS011;72563;44.816;20.484;2024-01-10T06:23:57;15.18;;;5.68;;
82806;SDS011;72563;44.816;20.484;2024-01-10T06:26:23;15.27;;;6.03;;
82806;SDS011;72563;44.816;20.484;2024-01-10T06:28:48;12.63;;;6.47;;
82806;SDS011;72563;44.816;20.484;2024-01-10T06:31:14;18.00;;;6.47;;
82806;SDS011;72563;44.816;20.484;2024-01-10T06:33:40;15.25;;;6.30;;
82806;SDS011;72563;44.816;20.484;2024-01-10T06:36:05;14.38;;;6.22;;
82806;SDS011;72563;44.816;20.484;2024-01-10T06:38:31;15.15;;;5.93;;
82806;SDS011;72563;44.816;20.484;2024-01-10T06:40:56;16.95;;;7.22;;
82806;SDS011;72563;44.816;20.484;2024-01-10T06:43:22;18.20;;;7.15;;
82806;SDS011;72563;44.816;20.484;2024-01-10T06:45:48;16.02;;;7.13;;
82806;SDS011;72563;44.816;20.484;2024-01-10T06:48:14;17.48;;;7.43;;
82806;SDS011;72563;44.816;20.484;2024-01-10T06:50:40;19.92;;;8.05;;
82806;SDS011;72563;44.816;20.484;2024-01-10T06:53:05;20.15;;;7.85;;
82806;SDS011;72563;44.816;20.484;2024-01-10T06:55:31;19.92;;;8.75;;
82806;SDS011;72563;44.816;20.484;2024-01-10T06:57:57;17.75;;;7.70;;
82806;SDS011;72563;44.816;20.484;2024-01-10T07:00:23;20.55;;;8.13;;
82806;SDS011;72563;44.816;20.484;2024-01-10T07:02:49;20.55;;;8.30;;
82806;SDS011;72563;44.816;20.484;2024-01-10T07:05:15;18.10;;;7.13;;
82806;SDS011;72563;44.816;20.484;2024-01-10T07:07:41;20.13;;;7.97;;
82806;SDS011;72563;44.816;20.484;2024-01-10T07:10:07;19.50;;;7.55;;
82806;SDS011;72563;44.816;20.484;2024-01-10T07:12:33;19.92;;;7.95;;
82806;SDS011;72563;44.816;20.484;2024-01-10T07:14:59;17.80;;;9.13;;
82806;SDS011;72563;44.816;20.484;2024-01-10T07:17:25;15.18;;;7.03;;
82806;SDS011;72563;44.816;20.484;2024-01-10T07:19:51;24.27;;;9.85;;
82806;SDS011;72563;44.816;20.484;2024-01-10T07:22:16;24.70;;;9.93;;
82806;SDS011;72563;44.816;20.484;2024-01-10T07:24:43;22.48;;;9.70;;
82806;SDS011;72563;44.816;20.484;2024-01-10T07:27:09;26.63;;;10.45;;
82806;SDS011;72563;44.816;20.484;2024-01-10T07:29:35;19.60;;;9.00;;
82806;SDS011;72563;44.816;20.484;2024-01-10T07:32:00;25.40;;;10.77;;
82806;SDS011;72563;44.816;20.484;2024-01-10T07:34:26;28.40;;;11.07;;
82806;SDS011;72563;44.816;20.484;2024-01-10T07:36:51;25.25;;;9.85;;
82806;SDS011;72563;44.816;20.484;2024-01-10T07:39:19;19.60;;;9.07;;
82806;SDS011;72563;44.816;20.484;2024-01-10T07:41:45;22.95;;;9.55;;
82806;SDS011;72563;44.816;20.484;2024-01-10T07:44:11;21.15;;;7.80;;
82806;SDS011;72563;44.816;20.484;2024-01-10T07:46:37;20.25;;;8.77;;
82806;SDS011;72563;44.816;20.484;2024-01-10T07:49:03;18.50;;;7.60;;
82806;SDS011;72563;44.816;20.484;2024-01-10T07:51:30;17.75;;;8.10;;
82806;SDS011;72563;44.816;20.484;2024-01-10T07:53:56;18.33;;;7.22;;
82806;SDS011;72563;44.816;20.484;2024-01-10T07:56:21;19.05;;;8.07;;
82806;SDS011;72563;44.816;20.484;2024-01-10T07:58:47;15.88;;;7.43;;
82806;SDS011;72563;44.816;20.484;2024-01-10T08:01:14;18.58;;;8.02;;
82806;SDS011;72563;44.816;20.484;2024-01-10T08:03:40;22.08;;;8.90;;
82806;SDS011;72563;44.816;20.484;2024-01-10T08:06:06;22.52;;;9.07;;
82806;SDS011;72563;44.816;20.484;2024-01-10T08:08:32;23.75;;;9.85;;
82806;SDS011;72563;44.816;20.484;2024-01-10T08:10:57;18.55;;;8.85;;
82806;SDS011;72563;44.816;20.484;2024-01-10T08:13:23;21.55;;;9.25;;
82806;SDS011;72563;44.816;20.484;2024-01-10T08:15:48;18.75;;;8.32;;
82806;SDS011;72563;44.816;20.484;2024-01-10T08:18:14;20.58;;;8.82;;
82806;SDS011;72563;44.816;20.484;2024-01-10T08:20:40;17.30;;;6.38;;
82806;SDS011;72563;44.816;20.484;2024-01-10T08:23:05;16.77;;;7.45;;
82806;SDS011;72563;44.816;20.484;2024-01-10T08:25:31;16.42;;;6.70;;
82806;SDS011;72563;44.816;20.484;2024-01-10T08:27:57;15.82;;;6.65;;
82806;SDS011;72563;44.816;20.484;2024-01-10T08:30:23;18.90;;;7.82;;
82806;SDS011;72563;44.816;20.484;2024-01-10T08:32:49;18.45;;;7.85;;
82806;SDS011;72563;44.816;20.484;2024-01-10T08:35:15;20.08;;;8.63;;
82806;SDS011;72563;44.816;20.484;2024-01-10T08:37:41;20.25;;;8.25;;
82806;SDS011;72563;44.816;20.484;2024-01-10T08:40:10;19.05;;;8.43;;
82806;SDS011;72563;44.816;20.484;2024-01-10T08:42:39;19.55;;;8.90;;
82806;SDS011;72563;44.816;20.484;2024-01-10T08:45:05;19.23;;;9.10;;
82806;SDS011;72563;44.816;20.484;2024-01-10T08:47:31;23.52;;;9.43;;
82806;SDS011;72563;44.816;20.484;2024-01-10T08:49:58;23.83;;;10.05;;
82806;SDS011;72563;44.816;20.484;2024-01-10T08:52:24;23.17;;;10.75;;
82806;SDS011;72563;44.816;20.484;2024-01-10T08:54:49;22.58;;;10.27;;
82806;SDS011;72563;44.816;20.484;2024-01-10T08:57:15;21.52;;;9.93;;
82806;SDS011;72563;44.816;20.484;2024-01-10T08:59:43;23.50;;;10.73;;
82806;SDS011;72563;44.816;20.484;2024-01-10T09:02:09;24.55;;;12.20;;
82806;SDS011;72563;44.816;20.484;2024-01-10T09:04:34;25.48;;;11.95;;
82806;SDS011;72563;44.816;20.484;2024-01-10T09:07:00;21.15;;;10.40;;
82806;SDS011;72563;44.816;20.484;2024-01-10T09:09:25;21.08;;;10.80;;
82806;SDS011;72563;44.816;20.484;2024-01-10T09:11:51;21.23;;;9.88;;
82806;SDS011;72563;44.816;20.484;2024-01-10T09:14:16;26.27;;;12.32;;
82806;SDS011;72563;44.816;20.484;2024-01-10T09:16:42;25.77;;;11.80;;
82806;SDS011;72563;44.816;20.484;2024-01-10T09:19:08;22.55;;;10.90;;
82806;SDS011;72563;44.816;20.484;2024-01-10T09:21:34;18.17;;;8.30;;
82806;SDS011;72563;44.816;20.484;2024-01-10T09:24:00;8.20;;;3.55;;
82806;SDS011;72563;44.816;20.484;2024-01-10T09:26:25;10.43;;;5.28;;
82806;SDS011;72563;44.816;20.484;2024-01-10T09:28:51;11.90;;;5.18;;
82806;SDS011;72563;44.816;20.484;2024-01-10T09:31:16;12.95;;;5.07;;
82806;SDS011;72563;44.816;20.484;2024-01-10T09:33:42;13.77;;;6.68;;
82806;SDS011;72563;44.816;20.484;2024-01-10T09:36:08;15.32;;;7.30;;
82806;SDS011;72563;44.816;20.484;2024-01-10T09:38:36;18.58;;;11.27;;
82806;SDS011;72563;44.816;20.484;2024-01-10T09:41:04;21.48;;;11.45;;
82806;SDS011;72563;44.816;20.484;2024-01-10T09:43:30;15.77;;;9.10;;
82806;SDS011;72563;44.816;20.484;2024-01-10T09:45:58;15.63;;;9.35;;
82806;SDS011;72563;44.816;20.484;2024-01-10T09:48:25;15.88;;;8.57;;
82806;SDS011;72563;44.816;20.484;2024-01-10T09:50:51;18.33;;;9.23;;
82806;SDS011;72563;44.816;20.484;2024-01-10T09:53:24;18.38;;;9.57;;
82806;SDS011;72563;44.816;20.484;2024-01-10T09:55:52;16.38;;;8.77;;
82806;SDS011;72563;44.816;20.484;2024-01-10T09:58:22;16.85;;;8.50;;
82806;SDS011;72563;44.816;20.484;2024-01-10T10:00:50;18.15;;;8.50;;
82806;SDS011;72563;44.816;20.484;2024-01-10T10:03:15;16.48;;;8.50;;
82806;SDS011;72563;44.816;20.484;2024-01-10T10:05:43;18.58;;;8.60;;
82806;SDS011;72563;44.816;20.484;2024-01-10T10:08:10;16.92;;;8.10;;
82806;SDS011;72563;44.816;20.484;2024-01-10T10:10:39;18.63;;;8.32;;
82806;SDS011;72563;44.816;20.484;2024-01-10T10:13:08;18.27;;;7.97;;
82806;SDS011;72563;44.816;20.484;2024-01-10T10:15:36;19.20;;;8.77;;
82806;SDS011;72563;44.816;20.484;2024-01-10T10:18:02;17.88;;;8.73;;
82806;SDS011;72563;44.816;20.484;2024-01-10T10:20:28;9.65;;;4.20;;
82806;SDS011;72563;44.816;20.484;2024-01-10T10:25:33;13.43;;;6.35;;
82806;SDS011;72563;44.816;20.484;2024-01-10T10:28:01;12.45;;;6.07;;
82806;SDS011;72563;44.816;20.484;2024-01-10T10:32:56;14.45;;;8.57;;
82806;SDS011;72563;44.816;20.484;2024-01-10T10:35:22;14.70;;;7.40;;
82806;SDS011;72563;44.816;20.484;2024-01-10T10:37:48;14.00;;;8.45;;
82806;SDS011;72563;44.816;20.484;2024-01-10T10:40:15;12.50;;;8.13;;
82806;SDS011;72563;44.816;20.484;2024-01-10T10:42:45;14.18;;;7.88;;
82806;SDS011;72563;44.816;20.484;2024-01-10T10:45:17;16.17;;;8.85;;
82806;SDS011;72563;44.816;20.484;2024-01-10T10:47:46;14.23;;;8.38;;
82806;SDS011;72563;44.816;20.484;2024-01-10T10:50:21;15.43;;;8.50;;
82806;SDS011;72563;44.816;20.484;2024-01-10T10:52:49;16.75;;;10.30;;
82806;SDS011;72563;44.816;20.484;2024-01-10T10:55:16;16.45;;;10.15;;
82806;SDS011;72563;44.816;20.484;2024-01-10T10:57:46;16.60;;;10.23;;
82806;SDS011;72563;44.816;20.484;2024-01-10T11:00:13;17.50;;;10.15;;
82806;SDS011;72563;44.816;20.484;2024-01-10T11:02:40;17.95;;;9.73;;
82806;SDS011;72563;44.816;20.484;2024-01-10T11:05:08;15.30;;;8.15;;
82806;SDS011;72563;44.816;20.484;2024-01-10T11:07:40;13.75;;;7.55;;
82806;SDS011;72563;44.816;20.484;2024-01-10T11:10:14;15.13;;;8.32;;
82806;SDS011;72563;44.816;20.484;2024-01-10T11:13:05;15.38;;;8.13;;
82806;SDS011;72563;44.816;20.484;2024-01-10T11:18:51;15.50;;;7.18;;
82806;SDS011;72563;44.816;20.484;2024-01-10T11:24:23;15.73;;;7.13;;
82806;SDS011;72563;44.816;20.484;2024-01-10T11:26:50;16.85;;;7.30;;
82806;SDS011;72563;44.816;20.484;2024-01-10T11:29:15;17.33;;;8.43;;
82806;SDS011;72563;44.816;20.484;2024-01-10T11:31:41;21.02;;;8.90;;
82806;SDS011;72563;44.816;20.484;2024-01-10T11:34:15;16.13;;;7.22;;
82806;SDS011;72563;44.816;20.484;2024-01-10T11:36:40;16.90;;;7.32;;
82806;SDS011;72563;44.816;20.484;2024-01-10T11:39:36;15.75;;;7.32;;
82806;SDS011;72563;44.816;20.484;2024-01-10T11:42:03;17.27;;;8.38;;
82806;SDS011;72563;44.816;20.484;2024-01-10T11:44:28;16.13;;;7.50;;
82806;SDS011;72563;44.816;20.484;2024-01-10T11:46:55;15.70;;;7.45;;
82806;SDS011;72563;44.816;20.484;2024-01-10T11:49:23;14.68;;;6.65;;
82806;SDS011;72563;44.816;20.484;2024-01-10T11:51:50;16.63;;;7.43;;
82806;SDS011;72563;44.816;20.484;2024-01-10T11:54:37;16.58;;;7.10;;
82806;SDS011;72563;44.816;20.484;2024-01-10T11:59:35;12.88;;;5.88;;
82806;SDS011;72563;44.816;20.484;2024-01-10T12:02:01;12.68;;;6.65;;
82806;SDS011;72563;44.816;20.484;2024-01-10T12:04:29;12.45;;;7.55;;
82806;SDS011;72563;44.816;20.484;2024-01-10T12:06:57;15.27;;;8.38;;
82806;SDS011;72563;44.816;20.484;2024-01-10T12:09:23;14.02;;;8.52;;
82806;SDS011;72563;44.816;20.484;2024-01-10T12:11:49;15.18;;;8.75;;
82806;SDS011;72563;44.816;20.484;2024-01-10T12:14:15;16.35;;;10.05;;
82806;SDS011;72563;44.816;20.484;2024-01-10T12:16:42;18.13;;;12.35;;
82806;SDS011;72563;44.816;20.484;2024-01-10T12:19:08;18.52;;;12.18;;
82806;SDS011;72563;44.816;20.484;2024-01-10T12:21:33;23.90;;;14.10;;
82806;SDS011;72563;44.816;20.484;2024-01-10T12:23:59;21.20;;;13.48;;
82806;SDS011;72563;44.816;20.484;2024-01-10T12:26:24;19.17;;;12.50;;
82806;SDS011;72563;44.816;20.484;2024-01-10T12:28:53;19.63;;;12.40;;
82806;SDS011;72563;44.816;20.484;2024-01-10T12:31:20;19.38;;;12.73;;
82806;SDS011;72563;44.816;20.484;2024-01-10T12:33:48;19.17;;;12.48;;
82806;SDS011;72563;44.816;20.484;2024-01-10T12:36:14;19.15;;;13.60;;
82806;SDS011;72563;44.816;20.484;2024-01-10T12:38:42;22.27;;;13.38;;
82806;SDS011;72563;44.816;20.484;2024-01-10T12:41:09;19.45;;;12.45;;
82806;SDS011;72563;44.816;20.484;2024-01-10T12:43:35;19.05;;;12.77;;
82806;SDS011;72563;44.816;20.484;2024-01-10T12:46:08;17.95;;;11.95;;
82806;SDS011;72563;44.816;20.484;2024-01-10T12:48:36;19.02;;;11.75;;
82806;SDS011;72563;44.816;20.484;2024-01-10T12:51:05;19.20;;;12.43;;
82806;SDS011;72563;44.816;20.484;2024-01-10T12:53:41;18.13;;;11.85;;
82806;SDS011;72563;44.816;20.484;2024-01-10T12:56:08;18.38;;;10.65;;
82806;SDS011;72563;44.816;20.484;2024-01-10T12:58:39;17.33;;;10.48;;
82806;SDS011;72563;44.816;20.484;2024-01-10T13:01:05;18.00;;;9.93;;
82806;SDS011;72563;44.816;20.484;2024-01-10T13:03:31;16.30;;;10.43;;
82806;SDS011;72563;44.816;20.484;2024-01-10T13:05:56;15.65;;;10.35;;
82806;SDS011;72563;44.816;20.484;2024-01-10T13:08:23;18.00;;;10.65;;
82806;SDS011;72563;44.816;20.484;2024-01-10T13:10:49;16.10;;;10.32;;
82806;SDS011;72563;44.816;20.484;2024-01-10T13:13:14;15.73;;;10.05;;
82806;SDS011;72563;44.816;20.484;2024-01-10T13:15:42;14.38;;;9.20;;
82806;SDS011;72563;44.816;20.484;2024-01-10T13:18:08;13.80;;;8.68;;
82806;SDS011;72563;44.816;20.484;2024-01-10T13:20:37;14.55;;;10.35;;
82806;SDS011;72563;44.816;20.484;2024-01-10T13:23:03;14.18;;;9.00;;
82806;SDS011;72563;44.816;20.484;2024-01-10T13:25:29;15.70;;;9.40;;
82806;SDS011;72563;44.816;20.484;2024-01-10T13:27:55;13.48;;;7.97;;
82806;SDS011;72563;44.816;20.484;2024-01-10T13:30:20;13.07;;;7.53;;
82806;SDS011;72563;44.816;20.484;2024-01-10T13:32:46;13.88;;;7.93;;
82806;SDS011;72563;44.816;20.484;2024-01-10T13:35:13;12.65;;;7.88;;
82806;SDS011;72563;44.816;20.484;2024-01-10T13:37:39;14.30;;;9.18;;
82806;SDS011;72563;44.816;20.484;2024-01-10T13:40:06;13.85;;;8.13;;
82806;SDS011;72563;44.816;20.484;2024-01-10T13:42:33;12.40;;;8.25;;
82806;SDS011;72563;44.816;20.484;2024-01-10T13:44:58;14.43;;;7.95;;
82806;SDS011;72563;44.816;20.484;2024-01-10T13:47:24;13.35;;;8.63;;
82806;SDS011;72563;44.816;20.484;2024-01-10T13:49:49;13.57;;;7.90;;
82806;SDS011;72563;44.816;20.484;2024-01-10T13:52:15;22.35;;;8.68;;
82806;SDS011;72563;44.816;20.484;2024-01-10T13:54:40;14.40;;;9.40;;
82806;SDS011;72563;44.816;20.484;2024-01-10T13:57:07;13.95;;;8.30;;
82806;SDS011;72563;44.816;20.484;2024-01-10T13:59:33;15.73;;;8.95;;
82806;SDS011;72563;44.816;20.484;2024-01-10T14:01:59;14.35;;;8.93;;
82806;SDS011;72563;44.816;20.484;2024-01-10T14:04:25;17.30;;;11.63;;
82806;SDS011;72563;44.816;20.484;2024-01-10T14:06:50;17.20;;;11.10;;
82806;SDS011;72563;44.816;20.484;2024-01-10T14:09:16;16.85;;;11.05;;
82806;SDS011;72563;44.816;20.484;2024-01-10T14:11:43;16.63;;;9.55;;
82806;SDS011;72563;44.816;20.484;2024-01-10T14:14:15;16.17;;;9.52;;
82806;SDS011;72563;44.816;20.484;2024-01-10T14:16:42;17.55;;;9.95;;
82806;SDS011;72563;44.816;20.484;2024-01-10T14:19:08;20.63;;;11.20;;
82806;SDS011;72563;44.816;20.484;2024-01-10T14:21:33;18.08;;;10.55;;
82806;SDS011;72563;44.816;20.484;2024-01-10T14:23:59;18.40;;;10.18;;
82806;SDS011;72563;44.816;20.484;2024-01-10T14:26:24;19.02;;;10.45;;
82806;SDS011;72563;44.816;20.484;2024-01-10T14:28:51;17.48;;;9.15;;